createdAt,value
2022-08-20T00:02:10.617Z,10.60
2022-08-20T00:04:39.533Z,12.91
2022-08-20T00:07:06.388Z,13.05
2022-08-20T00:09:34.503Z,17.24
2022-08-20T00:12:03.747Z,34.02
2022-08-20T00:14:30.460Z,28.66
2022-08-20T00:17:00.419Z,30.48
2022-08-20T00:19:27.331Z,35.25
2022-08-20T00:21:58.118Z,17.69
2022-08-20T00:24:26.070Z,10.72
2022-08-20T00:26:53.046Z,11.46
2022-08-20T00:29:20.147Z,9.86
2022-08-20T00:31:47.028Z,11.06
2022-08-20T00:34:16.081Z,10.51
2022-08-20T00:36:43.567Z,9.26
2022-08-20T00:39:13.266Z,8.61
2022-08-20T00:41:41.601Z,9.27
2022-08-20T00:44:10.620Z,8.80
2022-08-20T00:46:37.939Z,9.05
2022-08-20T00:49:05.290Z,9.04
2022-08-20T00:51:33.356Z,9.08
2022-08-20T00:54:02.316Z,9.08
2022-08-20T00:56:31.351Z,9.38
2022-08-20T00:58:58.889Z,9.44
2022-08-20T01:01:32.936Z,9.03
2022-08-20T01:04:08.897Z,8.80
2022-08-20T01:06:36.373Z,9.01
2022-08-20T01:09:03.735Z,9.07
2022-08-20T01:11:31.146Z,9.49
2022-08-20T01:14:06.675Z,9.48
2022-08-20T01:16:33.183Z,8.96
2022-08-20T01:19:01.195Z,8.92
2022-08-20T01:21:28.505Z,9.01
2022-08-20T01:23:55.637Z,9.29
2022-08-20T01:26:24.509Z,9.28
2022-08-20T01:28:51.370Z,8.89
2022-08-20T01:31:18.081Z,9.23
2022-08-20T01:33:46.965Z,8.75
2022-08-20T01:36:14.126Z,9.00
2022-08-20T01:38:40.882Z,9.34
2022-08-20T01:41:28.378Z,9.33
2022-08-20T01:43:56.283Z,9.01
2022-08-20T01:46:27.749Z,9.25
2022-08-20T01:48:56.785Z,8.90
2022-08-20T01:51:23.522Z,8.63
2022-08-20T01:53:50.123Z,9.21
2022-08-20T01:56:17.354Z,9.25
2022-08-20T01:58:44.623Z,8.62
2022-08-20T02:01:18.195Z,8.34
2022-08-20T02:03:49.585Z,9.02
2022-08-20T02:06:18.748Z,8.56
2022-08-20T02:08:47.578Z,8.73
2022-08-20T02:11:16.556Z,8.95
2022-08-20T02:13:43.392Z,8.87
2022-08-20T02:16:11.640Z,9.12
2022-08-20T02:18:38.515Z,9.31
2022-08-20T02:21:05.278Z,9.07
2022-08-20T02:23:31.927Z,9.77
2022-08-20T02:25:58.963Z,9.38
2022-08-20T02:28:25.836Z,9.25
2022-08-20T02:30:52.665Z,8.72
2022-08-20T02:33:19.602Z,8.77
2022-08-20T02:35:50.927Z,9.42
2022-08-20T02:38:17.780Z,9.29
2022-08-20T02:40:51.768Z,9.41
2022-08-20T02:43:18.339Z,9.16
2022-08-20T02:45:45.245Z,9.33
2022-08-20T02:48:11.914Z,9.41
2022-08-20T02:50:39.054Z,9.57
2022-08-20T02:53:05.668Z,9.37
2022-08-20T02:55:32.517Z,9.33
2022-08-20T02:57:59.928Z,9.22
2022-08-20T03:00:27.151Z,9.36
2022-08-20T03:03:01.187Z,9.82
2022-08-20T03:05:28.694Z,9.51
2022-08-20T03:08:03.058Z,9.04
2022-08-20T03:13:22.716Z,8.84
2022-08-20T03:15:50.251Z,8.91
2022-08-20T03:18:17.755Z,8.64
2022-08-20T03:20:46.026Z,8.54
2022-08-20T03:23:15.532Z,8.51
2022-08-20T03:25:42.578Z,8.28
2022-08-20T03:28:09.495Z,8.98
2022-08-20T03:30:36.432Z,8.98
2022-08-20T03:33:03.906Z,9.14
2022-08-20T03:35:30.655Z,9.19
2022-08-20T03:37:57.756Z,8.81
2022-08-20T03:40:24.744Z,9.20
2022-08-20T03:42:51.374Z,9.33
2022-08-20T03:45:20.613Z,9.47
2022-08-20T03:47:47.783Z,9.64
2022-08-20T03:50:23.480Z,9.64
2022-08-20T03:52:50.385Z,9.71
2022-08-20T03:55:17.068Z,11.16
2022-08-20T03:57:44.456Z,10.79
2022-08-20T04:00:11.093Z,10.18
2022-08-20T04:02:39.443Z,10.45
2022-08-20T04:05:06.793Z,10.04
2022-08-20T04:07:33.613Z,10.42
2022-08-20T04:10:03.285Z,10.98
2022-08-20T04:12:38.030Z,10.85
2022-08-20T04:15:05.020Z,10.83
2022-08-20T04:17:34.393Z,10.59
2022-08-20T04:20:04.055Z,10.61
2022-08-20T04:22:30.814Z,10.84
2022-08-20T04:24:57.760Z,10.75
2022-08-20T04:27:24.731Z,10.08
2022-08-20T04:29:53.752Z,10.83
2022-08-20T04:32:21.095Z,10.68
2022-08-20T04:34:50.124Z,10.75
2022-08-20T04:37:17.533Z,10.23
2022-08-20T04:39:45.008Z,10.42
2022-08-20T04:42:12.121Z,10.79
2022-08-20T04:44:41.183Z,10.60
2022-08-20T04:47:10.601Z,10.13
2022-08-20T04:49:38.075Z,10.12
2022-08-20T04:52:05.892Z,10.66
2022-08-20T04:54:32.954Z,10.28
2022-08-20T04:56:59.735Z,9.79
2022-08-20T05:02:20.623Z,10.62
2022-08-20T05:04:47.311Z,9.57
2022-08-20T05:07:13.839Z,9.71
2022-08-20T05:09:44.139Z,9.60
2022-08-20T05:12:11.382Z,9.28
2022-08-20T05:14:38.452Z,8.98
2022-08-20T05:17:05.146Z,9.28
2022-08-20T05:19:34.799Z,9.16
2022-08-20T05:22:05.232Z,9.80
2022-08-20T05:24:33.840Z,10.17
2022-08-20T05:27:08.757Z,10.01
2022-08-20T05:29:46.805Z,10.41
2022-08-20T05:32:15.873Z,10.54
2022-08-20T05:34:42.422Z,10.79
2022-08-20T05:37:09.889Z,10.51
2022-08-20T05:39:43.483Z,10.21
2022-08-20T05:42:12.552Z,10.34
2022-08-20T05:44:41.563Z,10.54
2022-08-20T05:47:08.471Z,10.39
2022-08-20T05:49:37.395Z,10.75
2022-08-20T05:52:04.053Z,10.92
2022-08-20T05:54:37.942Z,10.41
2022-08-20T05:57:04.877Z,10.59
2022-08-20T05:59:31.791Z,10.53
2022-08-20T06:01:58.629Z,9.79
2022-08-20T06:04:25.538Z,9.69
2022-08-20T06:06:52.824Z,8.91
2022-08-20T06:09:30.784Z,8.82
2022-08-20T06:12:00.673Z,8.74
2022-08-20T06:14:27.193Z,8.57
2022-08-20T06:16:57.798Z,8.03
2022-08-20T06:19:32.401Z,7.80
2022-08-20T06:21:59.803Z,8.15
2022-08-20T06:24:26.555Z,7.96
2022-08-20T06:26:56.292Z,8.01
2022-08-20T06:29:23.222Z,8.17
2022-08-20T06:31:50.196Z,8.01
2022-08-20T06:34:17.177Z,8.30
2022-08-20T06:36:43.849Z,7.64
2022-08-20T06:39:11.314Z,7.69
2022-08-20T06:41:37.804Z,7.89
2022-08-20T06:44:05.009Z,8.63
2022-08-20T06:46:32.604Z,8.10
2022-08-20T06:48:59.261Z,7.90
2022-08-20T06:51:26.278Z,8.15
2022-08-20T06:53:53.029Z,7.83
2022-08-20T06:56:21.834Z,7.78
2022-08-20T06:58:48.780Z,7.79
2022-08-20T07:01:15.568Z,8.28
2022-08-20T07:03:55.787Z,8.38
2022-08-20T07:06:25.676Z,8.39
2022-08-20T07:08:53.489Z,7.83
2022-08-20T07:11:24.978Z,8.30
2022-08-20T07:13:54.555Z,8.22
2022-08-20T07:16:21.490Z,8.64
2022-08-20T07:18:48.100Z,8.16
2022-08-20T07:21:15.785Z,8.41
2022-08-20T07:23:42.381Z,8.57
2022-08-20T07:26:09.130Z,8.90
2022-08-20T07:28:36.540Z,8.74
2022-08-20T07:31:12.083Z,8.77
2022-08-20T07:33:40.823Z,8.73
2022-08-20T07:36:08.102Z,8.63
2022-08-20T07:38:37.166Z,8.73
2022-08-20T07:41:03.791Z,8.52
2022-08-20T07:43:35.895Z,8.65
2022-08-20T07:46:04.743Z,8.95
2022-08-20T07:51:45.495Z,24.87
2022-08-20T07:54:12.578Z,28.80
2022-08-20T07:56:39.508Z,21.23
2022-08-20T07:59:12.995Z,9.08
2022-08-20T08:02:07.225Z,9.04
2022-08-20T08:04:38.278Z,9.50
2022-08-20T08:07:05.412Z,23.79
2022-08-20T08:09:32.526Z,55.36
2022-08-20T08:12:01.643Z,9.65
2022-08-20T08:14:28.219Z,9.48
2022-08-20T08:16:55.068Z,8.79
2022-08-20T08:19:22.471Z,8.14
2022-08-20T08:21:59.687Z,8.82
2022-08-20T08:27:30.457Z,8.46
2022-08-20T08:30:00.829Z,8.86
2022-08-20T08:32:30.663Z,8.88
2022-08-20T08:34:59.062Z,8.67
2022-08-20T08:37:36.009Z,8.62
2022-08-20T08:40:07.891Z,8.23
2022-08-20T08:42:43.271Z,7.26
2022-08-20T08:45:11.174Z,6.90
2022-08-20T08:47:40.582Z,6.26
2022-08-20T08:50:21.853Z,6.43
2022-08-20T08:53:08.536Z,6.25
2022-08-20T08:55:41.667Z,6.32
2022-08-20T08:58:16.893Z,6.32
2022-08-20T09:00:56.253Z,6.06
2022-08-20T09:03:34.413Z,5.88
2022-08-20T09:06:08.671Z,5.45
2022-08-20T09:11:17.266Z,5.20
2022-08-20T09:13:52.978Z,5.23
2022-08-20T09:16:20.083Z,5.01
2022-08-20T09:21:35.434Z,5.78
2022-08-20T09:24:10.383Z,5.76
2022-08-20T09:26:39.143Z,5.94
2022-08-20T09:29:07.021Z,6.08
2022-08-20T09:31:36.338Z,5.41
2022-08-20T09:34:06.294Z,5.41
2022-08-20T09:36:35.241Z,5.58
2022-08-20T09:39:02.810Z,5.46
2022-08-20T09:41:30.293Z,5.25
2022-08-20T09:43:58.364Z,4.55
2022-08-20T09:46:28.631Z,4.30
2022-08-20T09:48:58.433Z,4.58
2022-08-20T09:51:25.474Z,4.90
2022-08-20T09:53:52.104Z,4.52
2022-08-20T09:56:19.277Z,4.75
2022-08-20T09:58:46.387Z,4.51
2022-08-20T10:01:15.127Z,4.56
2022-08-20T10:03:43.822Z,5.23
2022-08-20T10:06:11.253Z,5.00
2022-08-20T10:08:39.120Z,5.20
2022-08-20T10:11:06.314Z,5.03
2022-08-20T10:13:37.423Z,5.15
2022-08-20T10:16:08.406Z,4.79
2022-08-20T10:18:35.108Z,4.83
2022-08-20T10:21:05.444Z,4.96
2022-08-20T10:23:34.011Z,5.00
2022-08-20T10:26:01.103Z,4.39
2022-08-20T10:28:28.092Z,4.58
2022-08-20T10:30:55.440Z,4.68
2022-08-20T10:33:22.598Z,4.66
2022-08-20T10:35:50.013Z,4.63
2022-08-20T10:38:17.595Z,4.92
2022-08-20T10:40:52.363Z,5.44
2022-08-20T10:43:20.646Z,5.45
2022-08-20T10:45:47.750Z,5.91
2022-08-20T10:48:21.239Z,5.23
2022-08-20T10:50:49.231Z,4.99
2022-08-20T10:53:18.615Z,5.52
2022-08-20T10:55:45.565Z,4.68
2022-08-20T10:58:20.191Z,4.04
2022-08-20T11:00:50.402Z,4.17
2022-08-20T11:03:17.588Z,3.60
2022-08-20T11:05:45.252Z,3.63
2022-08-20T11:08:12.912Z,3.61
2022-08-20T11:10:41.104Z,3.72
2022-08-20T11:13:08.062Z,4.18
2022-08-20T11:15:42.177Z,3.77
2022-08-20T11:18:09.332Z,3.68
2022-08-20T11:20:43.270Z,3.24
2022-08-20T11:23:10.194Z,3.25
2022-08-20T11:25:37.415Z,2.94
2022-08-20T11:28:06.458Z,2.45
2022-08-20T11:30:34.860Z,2.70
2022-08-20T11:33:03.182Z,2.43
2022-08-20T11:35:49.268Z,2.25
2022-08-20T11:38:16.987Z,2.18
2022-08-20T11:40:43.960Z,3.55
2022-08-20T11:43:14.633Z,2.49
2022-08-20T11:45:46.193Z,2.53
2022-08-20T11:48:15.233Z,2.85
2022-08-20T11:50:43.635Z,2.82
2022-08-20T11:53:14.985Z,2.84
2022-08-20T11:55:41.970Z,3.21
2022-08-20T11:58:10.311Z,3.70
2022-08-20T12:00:37.501Z,3.65
2022-08-20T12:03:05.540Z,3.81
2022-08-20T12:05:36.623Z,3.46
2022-08-20T12:08:05.413Z,3.52
2022-08-20T12:10:35.117Z,3.66
2022-08-20T12:13:06.183Z,3.76
2022-08-20T12:15:35.301Z,3.73
2022-08-20T12:18:02.929Z,3.59
2022-08-20T12:20:29.916Z,3.64
2022-08-20T12:23:04.026Z,3.78
2022-08-20T12:25:38.006Z,3.89
2022-08-20T12:28:12.183Z,4.13
2022-08-20T12:30:39.714Z,4.12
2022-08-20T12:33:06.655Z,4.00
2022-08-20T12:35:33.262Z,3.87
2022-08-20T12:38:07.931Z,3.80
2022-08-20T12:43:52.029Z,4.00
2022-08-20T12:46:18.861Z,4.43
2022-08-20T12:48:45.790Z,4.43
2022-08-20T12:51:13.121Z,4.31
2022-08-20T12:53:40.116Z,4.45
2022-08-20T12:56:12.280Z,3.85
2022-08-20T12:58:39.789Z,3.35
2022-08-20T13:01:16.937Z,3.63
2022-08-20T13:03:45.123Z,3.67
2022-08-20T13:08:54.457Z,3.70
2022-08-20T13:11:42.723Z,3.67
2022-08-20T13:14:12.729Z,4.19
2022-08-20T13:16:47.469Z,3.97
2022-08-20T13:19:18.082Z,4.03
2022-08-20T13:21:45.015Z,3.95
2022-08-20T13:24:22.073Z,4.33
2022-08-20T13:26:49.425Z,4.69
2022-08-20T13:29:16.732Z,4.46
2022-08-20T13:31:50.520Z,4.47
2022-08-20T13:34:18.910Z,4.50
2022-08-20T13:36:46.387Z,4.35
2022-08-20T13:39:13.000Z,4.58
2022-08-20T13:41:40.662Z,4.51
2022-08-20T13:44:09.045Z,4.78
2022-08-20T13:46:36.247Z,4.46
2022-08-20T13:49:04.848Z,4.33
2022-08-20T13:51:31.744Z,3.82
2022-08-20T13:54:00.292Z,3.90
2022-08-20T13:56:34.393Z,3.54
2022-08-20T13:59:01.914Z,3.11
2022-08-20T14:01:28.586Z,2.78
2022-08-20T14:03:55.585Z,2.68
2022-08-20T14:06:24.483Z,2.54
2022-08-20T14:08:51.862Z,2.89
2022-08-20T14:11:18.820Z,2.83
2022-08-20T14:13:48.122Z,3.36
2022-08-20T14:16:27.379Z,2.83
2022-08-20T14:18:55.388Z,2.88
2022-08-20T14:21:22.527Z,2.83
2022-08-20T14:23:49.319Z,2.93
2022-08-20T14:26:23.436Z,3.39
2022-08-20T14:28:51.133Z,3.58
2022-08-20T14:31:18.124Z,3.53
2022-08-20T14:33:44.943Z,3.33
2022-08-20T14:36:20.240Z,3.03
2022-08-20T14:38:49.725Z,2.99
2022-08-20T14:41:16.787Z,3.52
2022-08-20T14:43:50.868Z,3.44
2022-08-20T14:46:18.278Z,3.56
2022-08-20T14:48:45.141Z,3.52
2022-08-20T14:51:20.301Z,3.61
2022-08-20T14:53:47.487Z,3.40
2022-08-20T14:56:18.173Z,3.55
2022-08-20T14:58:46.628Z,3.27
2022-08-20T15:01:20.767Z,3.36
2022-08-20T15:03:54.904Z,3.11
2022-08-20T15:06:28.986Z,3.80
2022-08-20T15:08:55.828Z,3.18
2022-08-20T15:11:34.153Z,3.52
2022-08-20T15:14:08.212Z,3.75
2022-08-20T15:16:40.189Z,3.65
2022-08-20T15:22:19.872Z,2.91
2022-08-20T15:24:46.731Z,2.98
2022-08-20T15:29:54.609Z,2.18
2022-08-20T15:32:22.707Z,1.91
2022-08-20T15:34:49.955Z,1.28
2022-08-20T15:37:17.057Z,1.28
2022-08-20T15:39:44.092Z,1.74
2022-08-20T15:42:11.610Z,1.58
2022-08-20T15:44:39.729Z,1.65
2022-08-20T15:47:08.537Z,1.32
2022-08-20T15:49:36.191Z,1.30
2022-08-20T15:52:03.257Z,1.24
2022-08-20T15:54:30.739Z,1.15
2022-08-20T15:56:59.872Z,1.25
2022-08-20T15:59:28.033Z,1.16
2022-08-20T16:01:56.848Z,1.30
2022-08-20T16:04:24.762Z,1.43
2022-08-20T16:06:51.577Z,1.20
2022-08-20T16:09:25.955Z,0.90
2022-08-20T16:11:52.630Z,0.99
2022-08-20T16:14:19.417Z,1.02
2022-08-20T16:17:01.215Z,1.27
2022-08-20T16:19:28.548Z,1.16
2022-08-20T16:21:57.649Z,0.96
2022-08-20T16:24:31.513Z,1.28
2022-08-20T16:30:25.230Z,1.19
2022-08-20T16:32:53.920Z,1.12
2022-08-20T16:51:23.393Z,0.92
2022-08-20T16:53:51.220Z,0.88
2022-08-20T16:56:18.928Z,1.23
2022-08-20T16:58:45.929Z,1.07
2022-08-20T17:01:13.482Z,1.28
2022-08-20T17:03:41.001Z,2.79
2022-08-20T17:06:07.977Z,3.12
2022-08-20T17:08:38.655Z,1.77
2022-08-20T17:11:11.944Z,1.52
2022-08-20T17:13:38.754Z,1.73
2022-08-20T17:16:06.546Z,1.86
2022-08-20T17:18:33.703Z,6.43
2022-08-20T17:21:00.414Z,3.84
2022-08-20T17:23:27.219Z,2.57
2022-08-20T17:25:54.170Z,1.72
2022-08-20T17:28:23.156Z,1.78
2022-08-20T17:30:50.198Z,2.19
2022-08-20T17:33:21.765Z,9.27
2022-08-20T17:35:48.444Z,2.99
2022-08-20T17:38:18.521Z,1.51
2022-08-20T17:40:49.839Z,1.12
2022-08-20T17:43:16.430Z,1.03
2022-08-20T17:45:43.343Z,1.26
2022-08-20T17:48:10.216Z,1.25
2022-08-20T17:50:37.611Z,1.10
2022-08-20T17:53:04.708Z,0.98
2022-08-20T17:55:31.337Z,1.09
2022-08-20T17:57:58.369Z,3.53
2022-08-20T18:00:25.974Z,13.98
2022-08-20T18:02:57.050Z,124.21
2022-08-20T18:05:23.877Z,90.80
2022-08-20T18:08:04.856Z,13.23
2022-08-20T18:10:41.664Z,33.23
2022-08-20T18:16:18.323Z,35.36
2022-08-20T18:21:36.493Z,15.91
2022-08-20T18:24:10.620Z,14.37
2022-08-20T18:26:40.251Z,11.08
2022-08-20T18:29:14.178Z,8.60
2022-08-20T18:34:34.360Z,18.70
2022-08-20T18:37:11.174Z,5.77
2022-08-20T18:39:38.263Z,4.42
2022-08-20T18:42:06.215Z,4.64
2022-08-20T18:44:41.553Z,6.32
2022-08-20T18:47:12.338Z,2.84
2022-08-20T18:49:44.352Z,3.03
2022-08-20T18:52:17.295Z,2.35
2022-08-20T19:01:11.316Z,1.94
2022-08-20T19:03:41.927Z,1.87
2022-08-20T19:09:08.389Z,2.34
2022-08-20T19:11:35.465Z,2.63
2022-08-20T19:14:04.994Z,3.58
2022-08-20T19:16:36.038Z,3.44
2022-08-20T19:19:05.102Z,2.65
2022-08-20T19:24:17.725Z,4.18
2022-08-20T19:26:50.979Z,3.08
2022-08-20T19:35:30.337Z,61.94
2022-08-20T19:38:22.737Z,37.68
2022-08-20T19:41:11.639Z,26.40
2022-08-20T19:46:59.799Z,10.53
2022-08-20T19:49:27.295Z,12.16
2022-08-20T19:52:16.891Z,8.93
2022-08-20T19:54:43.386Z,12.12
2022-08-20T19:57:10.203Z,13.20
2022-08-20T19:59:38.012Z,2.72
2022-08-20T20:02:20.012Z,2.03
2022-08-20T20:04:55.421Z,3.09
2022-08-20T20:07:30.503Z,1.96
2022-08-20T20:09:58.738Z,7.91
2022-08-20T20:12:28.469Z,5.02
2022-08-20T20:48:33.749Z,9.38
2022-08-20T20:51:00.764Z,21.15
2022-08-20T20:53:29.329Z,70.12
2022-08-20T20:56:41.334Z,64.04
2022-08-20T20:59:13.530Z,9.91
2022-08-20T21:17:28.832Z,13.36
2022-08-20T21:19:55.678Z,13.39
2022-08-20T21:22:22.676Z,29.99
2022-08-20T21:24:50.784Z,66.03
2022-08-20T21:32:52.078Z,13.33
2022-08-20T21:35:21.074Z,9.47
2022-08-20T21:37:48.123Z,8.53
2022-08-20T21:46:01.493Z,2.25
2022-08-20T21:48:29.990Z,2.58
2022-08-20T21:50:57.478Z,3.70
2022-08-20T21:53:24.492Z,2.13
2022-08-20T21:55:52.057Z,2.05
2022-08-20T21:58:18.724Z,2.18
2022-08-20T22:00:46.241Z,2.27
2022-08-20T22:03:13.371Z,2.76
2022-08-20T22:05:45.406Z,2.54
2022-08-20T22:08:18.398Z,2.51
2022-08-20T22:10:45.426Z,2.68
2022-08-20T22:13:12.687Z,3.02
2022-08-20T22:15:39.254Z,2.38
2022-08-20T22:18:06.170Z,2.83
2022-08-20T22:20:33.506Z,3.26
2022-08-20T22:23:00.285Z,2.17
2022-08-20T22:25:26.909Z,2.44
2022-08-20T22:27:57.434Z,2.55
2022-08-20T22:30:25.791Z,2.53
2022-08-20T22:32:57.157Z,2.72
2022-08-20T22:35:24.188Z,2.47
2022-08-20T22:37:51.087Z,2.29
2022-08-20T22:40:18.387Z,2.09
2022-08-20T22:42:45.843Z,2.40
2022-08-20T22:45:16.178Z,2.32
2022-08-20T22:47:42.959Z,2.43
2022-08-20T22:50:11.041Z,2.00
2022-08-20T22:52:41.251Z,1.99
2022-08-20T22:55:09.656Z,2.02
2022-08-20T22:57:36.658Z,1.57
2022-08-20T23:00:10.820Z,1.48
2022-08-20T23:02:37.756Z,1.24
2022-08-20T23:05:07.472Z,1.58
2022-08-20T23:07:37.936Z,1.46
2022-08-20T23:10:04.562Z,1.41
2022-08-20T23:12:31.891Z,1.62
2022-08-20T23:14:59.292Z,2.05
2022-08-20T23:17:26.870Z,2.24
2022-08-20T23:19:53.753Z,2.38
2022-08-20T23:22:20.374Z,2.32
2022-08-20T23:24:47.056Z,2.11
2022-08-20T23:27:15.650Z,1.53
2022-08-20T23:29:43.170Z,1.59
2022-08-20T23:32:10.560Z,1.60
2022-08-20T23:34:37.300Z,1.42
2022-08-20T23:37:04.178Z,1.49
2022-08-20T23:39:31.089Z,1.65
2022-08-20T23:41:57.740Z,1.44
2022-08-20T23:44:27.033Z,1.72
2022-08-20T23:46:58.480Z,1.51
2022-08-20T23:49:27.912Z,1.35
2022-08-20T23:52:01.885Z,1.56
2022-08-20T23:54:28.796Z,1.58
2022-08-20T23:56:57.005Z,1.51
2022-08-20T23:59:34.234Z,1.70
